sensor_id;sensor_type;location;lat;lon;timestamp;pressure;altitude;pressure_sealevel;temperature;humidity
42705;BME280;28342;42.594;23.414;2023-04-07T00:00:19;94192.19;;;2.97;50.21
42705;BME280;28342;42.594;23.414;2023-04-07T00:02:45;94195.41;;;2.58;52.16
42705;BME280;28342;42.594;23.414;2023-04-07T00:05:11;94174.47;;;2.58;51.34
42705;BME280;28342;42.594;23.414;2023-04-07T00:07:37;94173.91;;;2.72;51.35
42705;BME280;28342;42.594;23.414;2023-04-07T00:10:02;94193.53;;;2.94;50.88
42705;BME280;28342;42.594;23.414;2023-04-07T00:12:28;94186.97;;;2.97;50.87
42705;BME280;28342;42.594;23.414;2023-04-07T00:14:53;94198.44;;;3.11;50.95
42705;BME280;28342;42.594;23.414;2023-04-07T00:17:18;94205.25;;;3.12;51.98
42705;BME280;28342;42.594;23.414;2023-04-07T00:19:44;94180.16;;;2.96;51.95
42705;BME280;28342;42.594;23.414;2023-04-07T00:22:12;94192.22;;;2.92;53.31
42705;BME280;28342;42.594;23.414;2023-04-07T00:24:37;94189.00;;;3.05;52.52
42705;BME280;28342;42.594;23.414;2023-04-07T00:27:03;94190.06;;;3.04;53.55
42705;BME280;28342;42.594;23.414;2023-04-07T00:29:28;94184.06;;;2.98;53.95
42705;BME280;28342;42.594;23.414;2023-04-07T00:31:53;94181.72;;;2.97;53.85
42705;BME280;28342;42.594;23.414;2023-04-07T00:34:19;94181.78;;;2.66;54.59
42705;BME280;28342;42.594;23.414;2023-04-07T00:36:44;94165.56;;;2.44;54.15
42705;BME280;28342;42.594;23.414;2023-04-07T00:39:16;94183.34;;;2.67;54.56
42705;BME280;28342;42.594;23.414;2023-04-07T00:41:42;94178.41;;;2.61;54.50
42705;BME280;28342;42.594;23.414;2023-04-07T00:44:07;94173.72;;;2.27;53.98
42705;BME280;28342;42.594;23.414;2023-04-07T00:46:32;94190.97;;;2.28;53.92
42705;BME280;28342;42.594;23.414;2023-04-07T00:48:58;94187.59;;;2.48;51.93
42705;BME280;28342;42.594;23.414;2023-04-07T00:51:25;94188.09;;;2.60;52.26
42705;BME280;28342;42.594;23.414;2023-04-07T00:53:51;94179.44;;;2.65;52.99
42705;BME280;28342;42.594;23.414;2023-04-07T00:56:16;94188.09;;;2.60;52.69
42705;BME280;28342;42.594;23.414;2023-04-07T00:58:42;94184.97;;;2.48;54.71
42705;BME280;28342;42.594;23.414;2023-04-07T01:01:18;94184.94;;;2.53;54.67
42705;BME280;28342;42.594;23.414;2023-04-07T01:03:53;94186.00;;;2.52;53.83
42705;BME280;28342;42.594;23.414;2023-04-07T01:06:24;94172.41;;;2.50;54.44
42705;BME280;28342;42.594;23.414;2023-04-07T01:08:56;94172.41;;;2.40;54.75
42705;BME280;28342;42.594;23.414;2023-04-07T01:14:20;94183.41;;;2.47;54.97
42705;BME280;28342;42.594;23.414;2023-04-07T01:16:51;94171.91;;;2.23;56.56
42705;BME280;28342;42.594;23.414;2023-04-07T01:21:55;94176.06;;;2.14;53.53
42705;BME280;28342;42.594;23.414;2023-04-07T01:27:18;94175.03;;;2.25;52.98
42705;BME280;28342;42.594;23.414;2023-04-07T01:29:46;94173.97;;;2.26;53.75
42705;BME280;28342;42.594;23.414;2023-04-07T01:32:17;94164.28;;;2.26;52.91
42705;BME280;28342;42.594;23.414;2023-04-07T01:34:47;94176.06;;;2.29;56.41
42705;BME280;28342;42.594;23.414;2023-04-07T01:37:14;94171.91;;;2.33;56.16
42705;BME280;28342;42.594;23.414;2023-04-07T01:39:40;94170.31;;;2.32;57.19
42705;BME280;28342;42.594;23.414;2023-04-07T01:42:06;94171.63;;;2.29;56.88
42705;BME280;28342;42.594;23.414;2023-04-07T01:44:33;94156.47;;;2.21;54.83
42705;BME280;28342;42.594;23.414;2023-04-07T01:47:02;94143.91;;;2.08;53.86
42705;BME280;28342;42.594;23.414;2023-04-07T01:49:30;94174.25;;;2.24;53.11
42705;BME280;28342;42.594;23.414;2023-04-07T01:51:56;94164.59;;;2.15;53.57
42705;BME280;28342;42.594;23.414;2023-04-07T01:54:22;94160.38;;;2.19;56.08
42705;BME280;28342;42.594;23.414;2023-04-07T01:56:48;94164.81;;;2.28;56.23
42705;BME280;28342;42.594;23.414;2023-04-07T01:59:13;94150.97;;;2.13;57.20
42705;BME280;28342;42.594;23.414;2023-04-07T02:01:39;94163.53;;;2.10;54.63
42705;BME280;28342;42.594;23.414;2023-04-07T02:04:30;94163.00;;;2.14;52.92
42705;BME280;28342;42.594;23.414;2023-04-07T02:07:03;94152.53;;;2.03;53.04
42705;BME280;28342;42.594;23.414;2023-04-07T02:09:31;94141.53;;;1.96;52.48
42705;BME280;28342;42.594;23.414;2023-04-07T02:11:59;94141.81;;;2.10;53.49
42705;BME280;28342;42.594;23.414;2023-04-07T02:14:26;94156.72;;;2.25;55.45
42705;BME280;28342;42.594;23.414;2023-04-07T02:16:52;94130.56;;;2.09;51.85
42705;BME280;28342;42.594;23.414;2023-04-07T02:19:18;94156.19;;;2.38;54.42
42705;BME280;28342;42.594;23.414;2023-04-07T02:21:44;94138.41;;;2.15;54.00
42705;BME280;28342;42.594;23.414;2023-04-07T02:24:11;94139.44;;;2.08;53.60
42705;BME280;28342;42.594;23.414;2023-04-07T02:26:37;94145.22;;;2.00;53.01
42705;BME280;28342;42.594;23.414;2023-04-07T02:29:03;94142.59;;;1.90;53.22
42705;BME280;28342;42.594;23.414;2023-04-07T02:31:29;94137.88;;;1.77;55.05
42705;BME280;28342;42.594;23.414;2023-04-07T02:33:54;94148.84;;;1.64;55.76
42705;BME280;28342;42.594;23.414;2023-04-07T02:36:20;94149.88;;;1.68;55.91
42705;BME280;28342;42.594;23.414;2023-04-07T02:38:45;94132.38;;;1.58;55.95
42705;BME280;28342;42.594;23.414;2023-04-07T02:41:11;94161.94;;;1.69;56.49
42705;BME280;28342;42.594;23.414;2023-04-07T02:43:37;94134.19;;;1.47;56.42
42705;BME280;28342;42.594;23.414;2023-04-07T02:46:02;94140.47;;;1.67;55.50
42705;BME280;28342;42.594;23.414;2023-04-07T02:48:28;94139.72;;;1.71;57.17
42705;BME280;28342;42.594;23.414;2023-04-07T02:50:53;94148.34;;;1.77;59.08
42705;BME280;28342;42.594;23.414;2023-04-07T02:53:18;94135.78;;;1.79;58.90
42705;BME280;28342;42.594;23.414;2023-04-07T02:55:44;94159.81;;;1.66;59.85
42705;BME280;28342;42.594;23.414;2023-04-07T02:58:10;94143.63;;;1.64;59.97
42705;BME280;28342;42.594;23.414;2023-04-07T03:00:35;94145.69;;;1.52;58.27
42705;BME280;28342;42.594;23.414;2023-04-07T03:03:01;94161.38;;;1.52;57.13
42705;BME280;28342;42.594;23.414;2023-04-07T03:05:26;94163.47;;;1.49;56.82
42705;BME280;28342;42.594;23.414;2023-04-07T03:07:52;94143.03;;;1.31;57.26
42705;BME280;28342;42.594;23.414;2023-04-07T03:10:17;94155.59;;;1.34;57.28
42705;BME280;28342;42.594;23.414;2023-04-07T03:12:43;94144.09;;;1.30;56.75
42705;BME280;28342;42.594;23.414;2023-04-07T03:15:08;94153.75;;;1.30;57.39
42705;BME280;28342;42.594;23.414;2023-04-07T03:17:35;94148.03;;;1.43;57.95
42705;BME280;28342;42.594;23.414;2023-04-07T03:20:00;94166.59;;;1.52;59.81
42705;BME280;28342;42.594;23.414;2023-04-07T03:22:26;94167.13;;;1.38;59.61
42705;BME280;28342;42.594;23.414;2023-04-07T03:24:51;94164.19;;;1.25;57.67
42705;BME280;28342;42.594;23.414;2023-04-07T03:27:17;94137.16;;;0.88;58.11
42705;BME280;28342;42.594;23.414;2023-04-07T03:29:42;94134.00;;;0.86;58.14
42705;BME280;28342;42.594;23.414;2023-04-07T03:32:08;94172.25;;;1.08;58.55
42705;BME280;28342;42.594;23.414;2023-04-07T03:34:33;94153.19;;;1.17;58.27
42705;BME280;28342;42.594;23.414;2023-04-07T03:36:59;94172.31;;;1.28;57.61
42705;BME280;28342;42.594;23.414;2023-04-07T03:39:24;94171.50;;;1.28;58.01
42705;BME280;28342;42.594;23.414;2023-04-07T03:41:50;94162.34;;;1.20;58.34
42705;BME280;28342;42.594;23.414;2023-04-07T03:44:16;94171.19;;;1.14;58.75
42705;BME280;28342;42.594;23.414;2023-04-07T03:46:41;94162.31;;;1.15;58.68
42705;BME280;28342;42.594;23.414;2023-04-07T03:49:07;94177.75;;;1.16;59.57
42705;BME280;28342;42.594;23.414;2023-04-07T03:51:32;94172.75;;;1.10;59.50
42705;BME280;28342;42.594;23.414;2023-04-07T03:53:58;94180.03;;;0.98;58.97
42705;BME280;28342;42.594;23.414;2023-04-07T03:56:24;94180.75;;;0.88;59.60
42705;BME280;28342;42.594;23.414;2023-04-07T03:58:50;94169.41;;;0.62;60.04
42705;BME280;28342;42.594;23.414;2023-04-07T04:01:15;94180.84;;;0.56;60.12
42705;BME280;28342;42.594;23.414;2023-04-07T04:03:41;94175.72;;;0.71;60.85
42705;BME280;28342;42.594;23.414;2023-04-07T04:06:06;94180.94;;;0.76;60.62
42705;BME280;28342;42.594;23.414;2023-04-07T04:08:32;94154.19;;;0.49;60.96
42705;BME280;28342;42.594;23.414;2023-04-07T04:10:57;94171.47;;;0.60;61.03
42705;BME280;28342;42.594;23.414;2023-04-07T04:13:23;94176.03;;;0.80;60.97
42705;BME280;28342;42.594;23.414;2023-04-07T04:15:48;94181.47;;;0.73;61.39
42705;BME280;28342;42.594;23.414;2023-04-07T04:18:14;94193.03;;;0.87;61.53
42705;BME280;28342;42.594;23.414;2023-04-07T04:20:39;94179.88;;;0.72;62.59
42705;BME280;28342;42.594;23.414;2023-04-07T04:23:05;94184.59;;;0.70;62.46
42705;BME280;28342;42.594;23.414;2023-04-07T04:25:30;94189.50;;;0.62;62.09
42705;BME280;28342;42.594;23.414;2023-04-07T04:27:56;94182.66;;;0.50;61.84
42705;BME280;28342;42.594;23.414;2023-04-07T04:30:21;94189.19;;;0.53;62.33
42705;BME280;28342;42.594;23.414;2023-04-07T04:32:46;94198.16;;;0.67;63.57
42705;BME280;28342;42.594;23.414;2023-04-07T04:35:12;94201.56;;;0.73;61.79
42705;BME280;28342;42.594;23.414;2023-04-07T04:37:37;94196.66;;;0.81;62.75
42705;BME280;28342;42.594;23.414;2023-04-07T04:40:03;94190.91;;;0.79;61.37
42705;BME280;28342;42.594;23.414;2023-04-07T04:42:32;94205.91;;;1.04;60.89
42705;BME280;28342;42.594;23.414;2023-04-07T04:44:58;94202.56;;;1.14;62.66
42705;BME280;28342;42.594;23.414;2023-04-07T04:47:23;94182.13;;;1.01;61.62
42705;BME280;28342;42.594;23.414;2023-04-07T04:49:49;94188.28;;;0.79;61.08
42705;BME280;28342;42.594;23.414;2023-04-07T04:52:14;94196.72;;;0.97;60.72
42705;BME280;28342;42.594;23.414;2023-04-07T04:54:40;94200.66;;;0.94;60.01
42705;BME280;28342;42.594;23.414;2023-04-07T04:57:05;94207.78;;;1.14;60.15
42705;BME280;28342;42.594;23.414;2023-04-07T04:59:30;94215.41;;;1.26;60.44
42705;BME280;28342;42.594;23.414;2023-04-07T05:01:56;94212.81;;;1.36;60.87
42705;BME280;28342;42.594;23.414;2023-04-07T05:04:21;94200.56;;;1.46;60.27
42705;BME280;28342;42.594;23.414;2023-04-07T05:06:47;94194.81;;;1.39;59.64
42705;BME280;28342;42.594;23.414;2023-04-07T05:09:12;94193.50;;;1.47;59.37
42705;BME280;28342;42.594;23.414;2023-04-07T05:11:39;94199.53;;;1.53;58.72
42705;BME280;28342;42.594;23.414;2023-04-07T05:14:05;94201.91;;;1.64;59.59
42705;BME280;28342;42.594;23.414;2023-04-07T05:16:30;94204.31;;;1.81;59.77
42705;BME280;28342;42.594;23.414;2023-04-07T05:18:56;94208.50;;;1.92;60.19
42705;BME280;28342;42.594;23.414;2023-04-07T05:21:21;94213.50;;;2.09;61.49
42705;BME280;28342;42.594;23.414;2023-04-07T05:23:46;94218.22;;;2.02;61.55
42705;BME280;28342;42.594;23.414;2023-04-07T05:26:12;94219.00;;;2.18;59.82
42705;BME280;28342;42.594;23.414;2023-04-07T05:28:37;94214.81;;;2.27;58.35
42705;BME280;28342;42.594;23.414;2023-04-07T05:31:03;94226.31;;;2.41;57.74
42705;BME280;28342;42.594;23.414;2023-04-07T05:33:28;94216.38;;;2.53;57.68
42705;BME280;28342;42.594;23.414;2023-04-07T05:35:53;94216.38;;;2.53;58.50
42705;BME280;28342;42.594;23.414;2023-04-07T05:38:19;94216.88;;;2.55;59.25
42705;BME280;28342;42.594;23.414;2023-04-07T05:40:45;94207.97;;;2.66;59.16
42705;BME280;28342;42.594;23.414;2023-04-07T05:43:11;94222.06;;;2.86;58.38
42705;BME280;28342;42.594;23.414;2023-04-07T05:45:36;94229.91;;;3.01;58.05
42705;BME280;28342;42.594;23.414;2023-04-07T05:48:02;94195.81;;;3.06;57.76
42705;BME280;28342;42.594;23.414;2023-04-07T05:50:27;94200.81;;;3.03;59.33
42705;BME280;28342;42.594;23.414;2023-04-07T05:52:53;94215.44;;;3.19;58.81
42705;BME280;28342;42.594;23.414;2023-04-07T05:55:18;94215.50;;;3.09;60.28
42705;BME280;28342;42.594;23.414;2023-04-07T05:57:44;94205.22;;;3.22;57.61
42705;BME280;28342;42.594;23.414;2023-04-07T06:00:10;94220.59;;;3.44;56.33
42705;BME280;28342;42.594;23.414;2023-04-07T06:02:35;94219.00;;;3.53;54.61
42705;BME280;28342;42.594;23.414;2023-04-07T06:05:01;94201.94;;;3.56;54.54
42705;BME280;28342;42.594;23.414;2023-04-07T06:07:26;94202.91;;;3.65;56.05
42705;BME280;28342;42.594;23.414;2023-04-07T06:09:52;94230.63;;;3.86;57.71
42705;BME280;28342;42.594;23.414;2023-04-07T06:12:18;94219.88;;;3.83;58.98
42705;BME280;28342;42.594;23.414;2023-04-07T06:14:49;94211.44;;;3.91;55.86
42705;BME280;28342;42.594;23.414;2023-04-07T06:17:15;94203.22;;;4.03;53.41
42705;BME280;28342;42.594;23.414;2023-04-07T06:19:41;94226.41;;;4.25;53.77
42705;BME280;28342;42.594;23.414;2023-04-07T06:22:06;94227.69;;;4.32;55.47
42705;BME280;28342;42.594;23.414;2023-04-07T06:24:31;94225.09;;;4.27;55.69
42705;BME280;28342;42.594;23.414;2023-04-07T06:26:57;94224.63;;;4.20;55.09
42705;BME280;28342;42.594;23.414;2023-04-07T06:29:22;94208.16;;;4.43;53.02
42705;BME280;28342;42.594;23.414;2023-04-07T06:32:08;94225.41;;;4.84;51.45
42705;BME280;28342;42.594;23.414;2023-04-07T06:34:34;94213.53;;;4.91;49.63
42705;BME280;28342;42.594;23.414;2023-04-07T06:36:59;94229.28;;;4.91;47.88
42705;BME280;28342;42.594;23.414;2023-04-07T06:39:26;94222.50;;;4.85;47.63
42705;BME280;28342;42.594;23.414;2023-04-07T06:41:51;94211.19;;;5.14;47.61
42705;BME280;28342;42.594;23.414;2023-04-07T06:44:17;94197.75;;;5.39;49.16
42705;BME280;28342;42.594;23.414;2023-04-07T06:46:42;94208.00;;;5.59;50.75
42705;BME280;28342;42.594;23.414;2023-04-07T06:49:08;94220.84;;;5.85;51.01
42705;BME280;28342;42.594;23.414;2023-04-07T06:51:33;94212.50;;;6.02;47.74
42705;BME280;28342;42.594;23.414;2023-04-07T06:53:59;94219.38;;;6.16;47.40
42705;BME280;28342;42.594;23.414;2023-04-07T06:56:25;94207.13;;;6.44;46.31
42705;BME280;28342;42.594;23.414;2023-04-07T06:58:51;94227.22;;;6.54;45.20
42705;BME280;28342;42.594;23.414;2023-04-07T07:01:16;94217.84;;;6.48;46.06
42705;BME280;28342;42.594;23.414;2023-04-07T07:03:42;94188.78;;;6.20;43.83
42705;BME280;28342;42.594;23.414;2023-04-07T07:06:07;94192.91;;;6.59;44.66
42705;BME280;28342;42.594;23.414;2023-04-07T07:08:33;94207.22;;;6.85;46.44
42705;BME280;28342;42.594;23.414;2023-04-07T07:10:58;94215.84;;;7.05;43.83
42705;BME280;28342;42.594;23.414;2023-04-07T07:13:27;94219.78;;;7.21;43.41
42705;BME280;28342;42.594;23.414;2023-04-07T07:15:52;94217.63;;;7.23;45.61
42705;BME280;28342;42.594;23.414;2023-04-07T07:18:18;94212.41;;;6.91;46.56
42705;BME280;28342;42.594;23.414;2023-04-07T07:20:43;94222.91;;;7.23;44.81
42705;BME280;28342;42.594;23.414;2023-04-07T07:23:09;94229.81;;;7.74;44.51
42705;BME280;28342;42.594;23.414;2023-04-07T07:25:35;94229.22;;;7.91;42.90
42705;BME280;28342;42.594;23.414;2023-04-07T07:28:00;94233.44;;;7.78;43.38
42705;BME280;28342;42.594;23.414;2023-04-07T07:30:26;94224.78;;;8.14;45.94
42705;BME280;28342;42.594;23.414;2023-04-07T07:32:52;94212.78;;;8.30;42.12
42705;BME280;28342;42.594;23.414;2023-04-07T07:35:18;94238.81;;;8.36;41.37
42705;BME280;28342;42.594;23.414;2023-04-07T07:37:44;94241.56;;;8.18;41.53
42705;BME280;28342;42.594;23.414;2023-04-07T07:40:10;94237.53;;;7.84;41.70
42705;BME280;28342;42.594;23.414;2023-04-07T07:42:36;94221.53;;;7.67;43.81
42705;BME280;28342;42.594;23.414;2023-04-07T07:45:01;94237.63;;;7.79;43.67
42705;BME280;28342;42.594;23.414;2023-04-07T07:47:27;94245.72;;;7.96;43.53
42705;BME280;28342;42.594;23.414;2023-04-07T07:49:52;94241.28;;;8.55;44.97
42705;BME280;28342;42.594;23.414;2023-04-07T07:52:18;94244.38;;;9.33;42.39
42705;BME280;28342;42.594;23.414;2023-04-07T07:54:45;94256.94;;;9.58;39.99
42705;BME280;28342;42.594;23.414;2023-04-07T07:57:10;94227.84;;;9.27;39.12
42705;BME280;28342;42.594;23.414;2023-04-07T07:59:37;94241.75;;;8.80;39.58
42705;BME280;28342;42.594;23.414;2023-04-07T08:02:02;94242.16;;;8.28;39.90
42705;BME280;28342;42.594;23.414;2023-04-07T08:04:27;94245.22;;;7.94;40.51
42705;BME280;28342;42.594;23.414;2023-04-07T08:06:53;94237.25;;;7.72;40.75
42705;BME280;28342;42.594;23.414;2023-04-07T08:09:19;94246.16;;;7.76;42.02
42705;BME280;28342;42.594;23.414;2023-04-07T08:11:45;94245.59;;;8.51;41.64
42705;BME280;28342;42.594;23.414;2023-04-07T08:14:12;94230.19;;;9.20;40.15
42705;BME280;28342;42.594;23.414;2023-04-07T08:16:38;94231.41;;;9.63;37.47
42705;BME280;28342;42.594;23.414;2023-04-07T08:19:11;94239.34;;;10.11;36.11
42705;BME280;28342;42.594;23.414;2023-04-07T08:21:37;94231.56;;;10.40;37.58
42705;BME280;28342;42.594;23.414;2023-04-07T08:24:03;94234.97;;;10.84;39.96
42705;BME280;28342;42.594;23.414;2023-04-07T08:26:29;94233.75;;;11.37;37.64
42705;BME280;28342;42.594;23.414;2023-04-07T08:28:54;94231.25;;;10.76;35.44
42705;BME280;28342;42.594;23.414;2023-04-07T08:31:20;94234.59;;;9.91;35.90
42705;BME280;28342;42.594;23.414;2023-04-07T08:33:46;94219.56;;;9.60;39.38
42705;BME280;28342;42.594;23.414;2023-04-07T08:36:11;94238.72;;;9.57;40.06
42705;BME280;28342;42.594;23.414;2023-04-07T08:38:37;94238.09;;;9.60;37.96
42705;BME280;28342;42.594;23.414;2023-04-07T08:41:12;94219.78;;;9.89;39.38
42705;BME280;28342;42.594;23.414;2023-04-07T08:43:41;94222.03;;;10.22;37.13
42705;BME280;28342;42.594;23.414;2023-04-07T08:46:09;94224.09;;;10.60;35.27
42705;BME280;28342;42.594;23.414;2023-04-07T08:48:37;94236.81;;;11.10;39.07
42705;BME280;28342;42.594;23.414;2023-04-07T08:51:06;94242.00;;;11.53;36.58
42705;BME280;28342;42.594;23.414;2023-04-07T08:53:42;94222.97;;;11.72;35.05
42705;BME280;28342;42.594;23.414;2023-04-07T08:56:17;94239.22;;;11.79;34.26
42705;BME280;28342;42.594;23.414;2023-04-07T08:58:43;94241.31;;;11.64;36.92
42705;BME280;28342;42.594;23.414;2023-04-07T09:01:09;94232.84;;;11.71;36.64
42705;BME280;28342;42.594;23.414;2023-04-07T09:03:36;94227.09;;;11.60;35.26
42705;BME280;28342;42.594;23.414;2023-04-07T09:06:02;94243.88;;;11.52;37.28
42705;BME280;28342;42.594;23.414;2023-04-07T09:08:28;94225.94;;;11.32;36.04
42705;BME280;28342;42.594;23.414;2023-04-07T09:10:54;94237.06;;;11.25;36.46
42705;BME280;28342;42.594;23.414;2023-04-07T09:13:20;94245.63;;;11.31;38.01
42705;BME280;28342;42.594;23.414;2023-04-07T09:15:47;94248.34;;;11.22;36.21
42705;BME280;28342;42.594;23.414;2023-04-07T09:18:12;94229.34;;;10.86;36.76
42705;BME280;28342;42.594;23.414;2023-04-07T09:21:02;94225.19;;;10.59;37.56
42705;BME280;28342;42.594;23.414;2023-04-07T09:23:29;94245.31;;;10.42;38.32
42705;BME280;28342;42.594;23.414;2023-04-07T09:25:56;94245.91;;;10.57;37.49
42705;BME280;28342;42.594;23.414;2023-04-07T09:28:37;94241.25;;;10.54;36.73
42705;BME280;28342;42.594;23.414;2023-04-07T09:31:03;94237.00;;;10.70;38.24
42705;BME280;28342;42.594;23.414;2023-04-07T09:33:29;94237.81;;;10.44;37.56
42705;BME280;28342;42.594;23.414;2023-04-07T09:35:54;94242.97;;;10.50;36.82
42705;BME280;28342;42.594;23.414;2023-04-07T09:38:21;94231.44;;;10.45;36.46
42705;BME280;28342;42.594;23.414;2023-04-07T09:40:47;94240.59;;;10.83;36.27
42705;BME280;28342;42.594;23.414;2023-04-07T09:43:18;94226.09;;;10.80;35.25
42705;BME280;28342;42.594;23.414;2023-04-07T09:45:43;94236.03;;;11.00;37.04
42705;BME280;28342;42.594;23.414;2023-04-07T09:48:42;94229.50;;;10.72;36.96
42705;BME280;28342;42.594;23.414;2023-04-07T09:51:24;94247.31;;;10.80;37.04
42705;BME280;28342;42.594;23.414;2023-04-07T09:53:56;94247.47;;;10.66;38.31
42705;BME280;28342;42.594;23.414;2023-04-07T09:56:37;94241.41;;;10.48;36.92
42705;BME280;28342;42.594;23.414;2023-04-07T09:59:03;94241.84;;;10.25;37.74
42705;BME280;28342;42.594;23.414;2023-04-07T10:01:29;94252.63;;;10.45;38.03
42705;BME280;28342;42.594;23.414;2023-04-07T10:03:57;94263.41;;;10.75;38.06
42705;BME280;28342;42.594;23.414;2023-04-07T10:06:24;94227.69;;;10.46;38.21
42705;BME280;28342;42.594;23.414;2023-04-07T10:09:14;94258.25;;;10.53;38.01
42705;BME280;28342;42.594;23.414;2023-04-07T10:12:05;94243.84;;;10.19;38.20
42705;BME280;28342;42.594;23.414;2023-04-07T10:15:28;94264.75;;;10.12;37.28
42705;BME280;28342;42.594;23.414;2023-04-07T10:18:03;94260.53;;;10.19;39.53
42705;BME280;28342;42.594;23.414;2023-04-07T10:28:02;94263.34;;;10.14;38.67
42705;BME280;28342;42.594;23.414;2023-04-07T10:31:37;94249.16;;;10.19;38.37
42705;BME280;28342;42.594;23.414;2023-04-07T10:35:01;94241.56;;;10.26;38.98
42705;BME280;28342;42.594;23.414;2023-04-07T10:44:07;94264.41;;;10.05;36.76
42705;BME280;28342;42.594;23.414;2023-04-07T10:53:13;94250.44;;;9.73;38.22
42705;BME280;28342;42.594;23.414;2023-04-07T10:59:20;94270.91;;;9.81;39.43
42705;BME280;28342;42.594;23.414;2023-04-07T11:05:04;94267.88;;;10.14;40.35
42705;BME280;28342;42.594;23.414;2023-04-07T11:07:53;94274.63;;;10.29;38.21
42705;BME280;28342;42.594;23.414;2023-04-07T11:10:21;94270.16;;;9.98;38.69
42705;BME280;28342;42.594;23.414;2023-04-07T11:13:05;94272.53;;;10.17;38.64
42705;BME280;28342;42.594;23.414;2023-04-07T11:15:35;94262.22;;;10.07;38.75
42705;BME280;28342;42.594;23.414;2023-04-07T11:18:21;94277.41;;;10.32;36.18
42705;BME280;28342;42.594;23.414;2023-04-07T11:20:54;94279.47;;;10.44;37.38
42705;BME280;28342;42.594;23.414;2023-04-07T11:23:37;94254.44;;;10.02;36.75
42705;BME280;28342;42.594;23.414;2023-04-07T11:26:03;94254.72;;;10.09;39.20
42705;BME280;28342;42.594;23.414;2023-04-07T11:28:30;94289.06;;;10.14;39.54
42705;BME280;28342;42.594;23.414;2023-04-07T11:37:25;94276.03;;;10.26;39.59
42705;BME280;28342;42.594;23.414;2023-04-07T11:40:53;94290.53;;;10.29;39.55
42705;BME280;28342;42.594;23.414;2023-04-07T11:43:41;94286.25;;;10.19;40.01
42705;BME280;28342;42.594;23.414;2023-04-07T11:46:11;94267.16;;;9.43;38.57
42705;BME280;28342;42.594;23.414;2023-04-07T11:49:16;94280.66;;;9.33;43.91
42705;BME280;28342;42.594;23.414;2023-04-07T11:52:20;94289.94;;;9.92;41.81
42705;BME280;28342;42.594;23.414;2023-04-07T11:55:22;94276.63;;;10.23;41.41
42705;BME280;28342;42.594;23.414;2023-04-07T11:57:54;94280.53;;;10.34;39.74
42705;BME280;28342;42.594;23.414;2023-04-07T12:00:21;94260.97;;;10.04;41.20
42705;BME280;28342;42.594;23.414;2023-04-07T12:02:46;94284.44;;;10.28;41.68
42705;BME280;28342;42.594;23.414;2023-04-07T12:05:14;94284.09;;;10.21;41.19
42705;BME280;28342;42.594;23.414;2023-04-07T12:07:51;94279.72;;;10.16;41.27
42705;BME280;28342;42.594;23.414;2023-04-07T12:10:31;94270.03;;;10.21;40.91
42705;BME280;28342;42.594;23.414;2023-04-07T12:13:03;94264.47;;;10.22;41.08
42705;BME280;28342;42.594;23.414;2023-04-07T12:15:29;94289.44;;;10.38;40.47
42705;BME280;28342;42.594;23.414;2023-04-07T12:17:54;94283.50;;;10.33;40.64
42705;BME280;28342;42.594;23.414;2023-04-07T12:20:36;94272.44;;;10.31;41.05
42705;BME280;28342;42.594;23.414;2023-04-07T12:23:03;94287.25;;;10.40;41.06
42705;BME280;28342;42.594;23.414;2023-04-07T12:25:30;94284.97;;;10.08;39.89
42705;BME280;28342;42.594;23.414;2023-04-07T12:27:57;94293.78;;;10.26;41.72
42705;BME280;28342;42.594;23.414;2023-04-07T12:30:24;94286.22;;;10.10;41.86
42705;BME280;28342;42.594;23.414;2023-04-07T12:33:00;94289.56;;;10.25;42.31
42705;BME280;28342;42.594;23.414;2023-04-07T12:35:29;94285.03;;;10.25;40.99
42705;BME280;28342;42.594;23.414;2023-04-07T12:37:55;94304.56;;;9.89;41.75
42705;BME280;28342;42.594;23.414;2023-04-07T12:40:22;94297.56;;;9.94;42.77
42705;BME280;28342;42.594;23.414;2023-04-07T12:43:13;94301.50;;;10.05;42.23
42705;BME280;28342;42.594;23.414;2023-04-07T12:45:44;94298.88;;;10.13;43.02
42705;BME280;28342;42.594;23.414;2023-04-07T12:48:20;94300.50;;;10.40;42.60
42705;BME280;28342;42.594;23.414;2023-04-07T12:50:47;94300.06;;;10.47;41.93
42705;BME280;28342;42.594;23.414;2023-04-07T12:53:15;94289.28;;;10.43;42.32
42705;BME280;28342;42.594;23.414;2023-04-07T12:55:40;94273.38;;;10.26;40.95
42705;BME280;28342;42.594;23.414;2023-04-07T12:58:06;94296.94;;;10.54;41.70
42705;BME280;28342;42.594;23.414;2023-04-07T13:00:51;94289.75;;;10.63;41.67
42705;BME280;28342;42.594;23.414;2023-04-07T13:03:38;94295.69;;;10.77;41.50
42705;BME280;28342;42.594;23.414;2023-04-07T13:06:04;94285.53;;;10.70;41.11
42705;BME280;28342;42.594;23.414;2023-04-07T13:08:31;94295.25;;;10.58;41.71
42705;BME280;28342;42.594;23.414;2023-04-07T13:11:05;94304.13;;;10.62;39.51
42705;BME280;28342;42.594;23.414;2023-04-07T13:13:31;94279.28;;;10.32;41.99
42705;BME280;28342;42.594;23.414;2023-04-07T13:16:00;94266.00;;;10.23;41.30
42705;BME280;28342;42.594;23.414;2023-04-07T13:18:27;94266.91;;;10.10;40.49
42705;BME280;28342;42.594;23.414;2023-04-07T13:21:24;94297.25;;;10.43;41.53
42705;BME280;28342;42.594;23.414;2023-04-07T13:23:49;94292.25;;;10.33;43.27
42705;BME280;28342;42.594;23.414;2023-04-07T13:26:15;94301.31;;;10.50;43.09
42705;BME280;28342;42.594;23.414;2023-04-07T13:28:43;94296.94;;;10.54;43.58
42705;BME280;28342;42.594;23.414;2023-04-07T13:31:11;94306.28;;;10.42;43.21
42705;BME280;28342;42.594;23.414;2023-04-07T13:33:55;94286.56;;;10.17;41.83
42705;BME280;28342;42.594;23.414;2023-04-07T13:36:24;94284.44;;;9.80;41.87
42705;BME280;28342;42.594;23.414;2023-04-07T13:39:27;94320.16;;;9.82;42.15
42705;BME280;28342;42.594;23.414;2023-04-07T13:41:52;94325.75;;;9.89;42.48
42705;BME280;28342;42.594;23.414;2023-04-07T13:44:18;94302.03;;;9.76;42.13
42705;BME280;28342;42.594;23.414;2023-04-07T13:46:45;94307.31;;;9.67;43.12
42705;BME280;28342;42.594;23.414;2023-04-07T13:49:10;94307.22;;;9.81;44.20